Bhera Weather



Bhera's Current Weather

Temprature 37.94o scattered clouds

scattered clouds

Rain: 0 %

Min Temprature37.94o
Max Temprature37.94o
Humidity18
Wind Speed1.66 m/h
Sun Rise05:15:30
Sun Set18:54:13
Current Time: 08-May-2021 14:22:16
Lat/Lon: 32.4832, 72.9097




Bhera's Geo Location



Bhera's Weather Forecast

Time Overall Temp Min Temp Max Temp Humidity Wind Speed Rain
08-May-2021 (Sat)
17:00:00 scattered clouds 37.960 37.960 38.010 17 1.76 m/h 0 %
20:00:00 few clouds 34.430 32.670 34.430 22 1.87 m/h 0 %
23:00:00 light rain 27.460 27.460 27.460 41 2.41 m/h 104 %
09-May-2021 (Sun)
02:00:00 broken clouds 27.660 27.660 27.660 39 1.51 m/h 0 %
05:00:00 light rain 25.310 25.310 25.310 47 2.87 m/h 16 %
08:00:00 few clouds 31.610 31.610 31.610 30 3.77 m/h 0 %
11:00:00 few clouds 37.510 37.510 37.510 19 3.65 m/h 0 %
14:00:00 overcast clouds 40.490 40.490 40.490 13 1.17 m/h 0 %
17:00:00 broken clouds 40.200 40.200 40.200 12 2.9 m/h 0 %
20:00:00 few clouds 29.720 29.720 29.720 33 3.92 m/h 0 %
23:00:00 scattered clouds 26.700 26.700 26.700 40 3.43 m/h 0 %
10-May-2021 (Mon)
02:00:00 scattered clouds 26.630 26.630 26.630 38 3.74 m/h 0 %
05:00:00 broken clouds 25.340 25.340 25.340 46 2.96 m/h 0 %
08:00:00 light rain 29.960 29.960 29.960 35 3.56 m/h 15 %
11:00:00 overcast clouds 35.920 35.920 35.920 21 3.91 m/h 0 %
14:00:00 broken clouds 40.000 40.000 40.000 14 1.75 m/h 0 %
17:00:00 broken clouds 39.930 39.930 39.930 13 2.31 m/h 0 %
20:00:00 clear sky 34.160 34.160 34.160 19 2.74 m/h 0 %
23:00:00 clear sky 31.140 31.140 31.140 25 2.6 m/h 0 %
11-May-2021 (Tue)
02:00:00 scattered clouds 27.550 27.550 27.550 31 0.81 m/h 0 %
05:00:00 scattered clouds 26.700 26.700 26.700 33 1.24 m/h 0 %
08:00:00 clear sky 31.970 31.970 31.970 26 3.14 m/h 0 %
11:00:00 clear sky 38.050 38.050 38.050 17 3.22 m/h 0 %
14:00:00 clear sky 41.570 41.570 41.570 12 2.27 m/h 0 %
17:00:00 clear sky 41.680 41.680 41.680 10 2.97 m/h 0 %
20:00:00 clear sky 35.490 35.490 35.490 14 1.75 m/h 0 %
23:00:00 light rain 29.510 29.510 29.510 35 1.94 m/h 47 %
12-May-2021 (Wed)
02:00:00 overcast clouds 27.710 27.710 27.710 40 5.25 m/h 0 %
05:00:00 overcast clouds 26.140 26.140 26.140 44 3.05 m/h 0 %
08:00:00 overcast clouds 29.610 29.610 29.610 34 0.97 m/h 0 %
11:00:00 overcast clouds 32.830 32.830 32.830 27 3.89 m/h 0 %
14:00:00 overcast clouds 33.400 33.400 33.400 27 6.41 m/h 0 %
17:00:00 overcast clouds 33.930 33.930 33.930 25 3.99 m/h 0 %
20:00:00 light rain 27.840 27.840 27.840 42 3.34 m/h 32 %
23:00:00 light rain 26.000 26.000 26.000 50 2.17 m/h 16 %
13-May-2021 (Thu)
02:00:00 overcast clouds 24.960 24.960 24.960 52 2.57 m/h 0 %
05:00:00 overcast clouds 23.760 23.760 23.760 57 2.72 m/h 0 %
08:00:00 light rain 26.640 26.640 26.640 49 5.08 m/h 77 %
11:00:00 scattered clouds 31.920 31.920 31.920 33 4.31 m/h 0 %
14:00:00 scattered clouds 31.820 31.820 31.820 36 8.37 m/h 0 %


Bhera's Tourist Spots

Historical Places in Bhera

Famous Cities (60)